createdAt,value
2016-09-06T00:00:53.385Z,0
2016-09-06T00:01:53.407Z,0
2016-09-06T00:02:53.655Z,0
2016-09-06T00:03:53.372Z,0
2016-09-06T00:04:53.391Z,0
2016-09-06T00:05:53.418Z,0
2016-09-06T00:06:53.753Z,0
2016-09-06T00:07:53.467Z,0
2016-09-06T00:08:53.484Z,0
2016-09-06T00:09:53.508Z,0
2016-09-06T00:10:53.532Z,0
2016-09-06T00:11:53.560Z,0
2016-09-06T00:12:53.587Z,0
2016-09-06T00:13:53.610Z,0
2016-09-06T00:14:53.629Z,0
2016-09-06T00:15:53.657Z,0
2016-09-06T00:16:53.673Z,0
2016-09-06T00:17:53.700Z,0
2016-09-06T00:18:53.721Z,0
2016-09-06T00:19:53.746Z,0
2016-09-06T00:20:53.769Z,0
2016-09-06T00:21:53.790Z,0
2016-09-06T00:22:53.820Z,0
2016-09-06T00:23:53.839Z,0
2016-09-06T00:24:53.866Z,0
2016-09-06T00:25:53.887Z,0
2016-09-06T00:26:53.912Z,0
2016-09-06T00:27:53.938Z,0
2016-09-06T00:28:53.960Z,0
2016-09-06T00:29:53.988Z,0
2016-09-06T00:30:54.022Z,0
2016-09-06T00:31:54.030Z,0
2016-09-06T00:32:54.059Z,0
2016-09-06T00:33:54.071Z,0
2016-09-06T00:34:54.102Z,0
2016-09-06T00:35:54.124Z,0
2016-09-06T00:36:54.150Z,0
2016-09-06T00:37:54.170Z,0
2016-09-06T00:38:54.196Z,0
2016-09-06T00:39:54.219Z,0
2016-09-06T00:40:54.243Z,0
2016-09-06T00:41:54.576Z,0
2016-09-06T00:42:54.292Z,0
2016-09-06T00:43:54.330Z,0
2016-09-06T00:44:54.336Z,0
2016-09-06T00:45:54.359Z,0
2016-09-06T00:46:54.388Z,0
2016-09-06T00:47:54.409Z,0
2016-09-06T00:48:54.427Z,0
2016-09-06T00:49:54.453Z,0
2016-09-06T00:50:54.492Z,0
2016-09-06T00:51:54.516Z,0
2016-09-06T00:52:54.535Z,0
2016-09-06T00:53:54.562Z,0
2016-09-06T00:54:54.582Z,0
2016-09-06T00:55:54.605Z,0
2016-09-06T00:56:54.950Z,0
2016-09-06T00:57:54.656Z,0
2016-09-06T00:58:54.676Z,0
2016-09-06T00:59:54.706Z,0
2016-09-06T01:00:54.745Z,0
2016-09-06T01:01:54.749Z,0
2016-09-06T01:02:54.773Z,0
2016-09-06T01:03:54.800Z,0
2016-09-06T01:04:54.818Z,0
2016-09-06T01:05:54.844Z,0
2016-09-06T01:06:54.867Z,0
2016-09-06T01:07:54.896Z,0
2016-09-06T01:08:54.913Z,0
2016-09-06T01:09:54.943Z,0
2016-09-06T01:10:54.962Z,0
2016-09-06T01:11:54.990Z,0
2016-09-06T01:12:55.009Z,0
2016-09-06T01:13:55.033Z,0
2016-09-06T01:14:55.057Z,0
2016-09-06T01:15:55.081Z,0
2016-09-06T01:16:55.102Z,0
2016-09-06T01:17:55.125Z,0
2016-09-06T01:18:55.158Z,0
2016-09-06T01:19:55.173Z,0
2016-09-06T01:20:55.206Z,0
2016-09-06T01:21:55.223Z,0
2016-09-06T01:22:55.245Z,0
2016-09-06T01:23:55.287Z,0
2016-09-06T01:24:55.302Z,0
2016-09-06T01:25:55.314Z,0
2016-09-06T01:26:55.337Z,0
2016-09-06T01:27:55.362Z,0
2016-09-06T01:28:55.381Z,0
2016-09-06T01:29:55.421Z,0
2016-09-06T01:30:55.439Z,0
2016-09-06T01:31:55.454Z,0
2016-09-06T01:32:55.480Z,0
2016-09-06T01:33:55.503Z,0
2016-09-06T01:34:55.534Z,0
2016-09-06T01:35:55.550Z,0
2016-09-06T01:36:55.573Z,0
2016-09-06T01:37:55.598Z,0
2016-09-06T01:38:55.618Z,0
2016-09-06T01:39:55.642Z,0
2016-09-06T01:40:55.666Z,0
2016-09-06T01:41:55.691Z,0
2016-09-06T01:42:55.733Z,0
2016-09-06T01:43:55.741Z,0
2016-09-06T01:44:55.762Z,0
2016-09-06T01:45:55.782Z,0
2016-09-06T01:46:55.811Z,0
2016-09-06T01:47:55.825Z,0
2016-09-06T01:48:55.851Z,0
2016-09-06T01:49:55.874Z,0
2016-09-06T01:50:55.922Z,0
2016-09-06T01:51:55.921Z,0
2016-09-06T01:52:55.963Z,0
2016-09-06T01:53:56.283Z,0
2016-09-06T01:54:56.001Z,0
2016-09-06T01:55:56.013Z,0
2016-09-06T01:56:56.041Z,0
2016-09-06T01:57:56.083Z,0
2016-09-06T01:58:56.086Z,0
2016-09-06T01:59:56.118Z,0
2016-09-06T02:00:56.143Z,0
2016-09-06T02:01:56.157Z,0
2016-09-06T02:02:56.183Z,0
2016-09-06T02:03:56.216Z,0
2016-09-06T02:04:56.229Z,0
2016-09-06T02:05:56.251Z,0
2016-09-06T02:06:56.271Z,0
2016-09-06T02:07:56.296Z,0
2016-09-06T02:08:56.452Z,0
2016-09-06T02:09:56.460Z,0
2016-09-06T02:10:56.459Z,0
2016-09-06T02:11:56.493Z,0
2016-09-06T02:12:56.500Z,0
2016-09-06T02:13:56.510Z,0
2016-09-06T02:14:56.519Z,0
2016-09-06T02:15:56.518Z,0
2016-09-06T02:16:56.527Z,0
2016-09-06T02:17:56.597Z,0
2016-09-06T02:18:56.604Z,0
2016-09-06T02:19:56.603Z,0
2016-09-06T02:20:56.612Z,0
2016-09-06T02:21:56.623Z,0
2016-09-06T02:22:56.746Z,0
2016-09-06T02:23:56.759Z,0
2016-09-06T02:24:56.777Z,0
2016-09-06T02:25:57.030Z,0
2016-09-06T02:26:56.796Z,0
2016-09-06T02:27:56.804Z,0
2016-09-06T02:28:56.813Z,0
2016-09-06T02:29:56.813Z,0
2016-09-06T02:30:56.840Z,0
2016-09-06T02:31:56.854Z,0
2016-09-06T02:32:56.877Z,0
2016-09-06T02:33:56.899Z,0
2016-09-06T02:34:56.929Z,0
2016-09-06T02:35:56.945Z,0
2016-09-06T02:36:56.974Z,0
2016-09-06T02:37:56.997Z,0
2016-09-06T02:38:57.016Z,0
2016-09-06T02:39:57.048Z,0
2016-09-06T02:40:57.063Z,0
2016-09-06T02:41:57.088Z,0
2016-09-06T02:42:57.112Z,0
2016-09-06T02:43:57.132Z,0
2016-09-06T02:44:57.156Z,0
2016-09-06T02:45:57.183Z,0
2016-09-06T02:46:57.201Z,0
2016-09-06T02:47:57.228Z,0
2016-09-06T02:48:57.249Z,0
2016-09-06T02:49:57.273Z,0
2016-09-06T02:50:57.298Z,0
2016-09-06T02:51:57.321Z,0
2016-09-06T02:52:57.342Z,0
2016-09-06T02:53:57.366Z,0
2016-09-06T02:54:57.391Z,0
2016-09-06T02:55:57.419Z,0
2016-09-06T02:56:57.439Z,0
2016-09-06T02:57:57.452Z,0
2016-09-06T02:58:57.481Z,0
2016-09-06T02:59:57.520Z,0
2016-09-06T03:00:57.527Z,0
2016-09-06T03:01:57.552Z,0
2016-09-06T03:02:57.578Z,0
2016-09-06T03:03:57.594Z,0
2016-09-06T03:04:57.627Z,0
2016-09-06T03:05:57.640Z,0
2016-09-06T03:06:57.670Z,0
2016-09-06T03:07:57.687Z,0
2016-09-06T03:08:57.713Z,0
2016-09-06T03:09:57.729Z,0
2016-09-06T03:10:57.771Z,0
2016-09-06T03:11:58.102Z,0
2016-09-06T03:12:57.808Z,0
2016-09-06T03:13:57.833Z,0
2016-09-06T03:14:58.165Z,0
2016-09-06T03:15:57.874Z,0
2016-09-06T03:16:57.897Z,0
2016-09-06T03:17:57.926Z,0
2016-09-06T03:18:57.944Z,0
2016-09-06T03:19:57.966Z,0
2016-09-06T03:20:57.994Z,0
2016-09-06T03:21:58.013Z,0
2016-09-06T03:22:58.038Z,0
2016-09-06T03:23:58.054Z,0
2016-09-06T03:24:58.088Z,0
2016-09-06T03:25:58.129Z,0
2016-09-06T03:26:58.131Z,0
2016-09-06T03:27:58.156Z,0
2016-09-06T03:28:58.175Z,0
2016-09-06T03:29:58.205Z,0
2016-09-06T03:30:58.218Z,0
2016-09-06T03:31:58.254Z,0
2016-09-06T03:32:58.265Z,0
2016-09-06T03:33:58.286Z,0
2016-09-06T03:34:58.418Z,0
2016-09-06T03:35:58.426Z,0
2016-09-06T03:36:58.598Z,0
2016-09-06T03:37:58.599Z,0
2016-09-06T03:38:58.612Z,0
2016-09-06T03:39:58.612Z,0
2016-09-06T03:40:58.621Z,0
2016-09-06T03:41:58.629Z,0
2016-09-06T03:42:58.639Z,0
2016-09-06T03:43:58.647Z,0
2016-09-06T03:44:58.648Z,0
2016-09-06T03:45:58.656Z,0
2016-09-06T03:46:58.705Z,0
2016-09-06T03:47:58.712Z,0
2016-09-06T03:48:58.712Z,0
2016-09-06T03:49:58.758Z,0
2016-09-06T03:50:58.768Z,0
2016-09-06T03:51:58.775Z,0
2016-09-06T03:52:58.809Z,0
2016-09-06T03:53:58.807Z,0
2016-09-06T03:54:58.824Z,0
2016-09-06T03:55:58.825Z,0
2016-09-06T03:56:58.835Z,0
2016-09-06T03:57:58.845Z,0
2016-09-06T03:58:58.869Z,0
2016-09-06T03:59:58.890Z,0
2016-09-06T04:00:58.919Z,0
2016-09-06T04:01:58.933Z,0
2016-09-06T04:02:58.983Z,0
2016-09-06T04:03:58.979Z,0
2016-09-06T04:04:59.015Z,0
2016-09-06T04:05:59.028Z,0
2016-09-06T04:06:59.362Z,0
2016-09-06T04:07:59.151Z,0
2016-09-06T04:08:59.098Z,0
2016-09-06T04:09:59.120Z,0
2016-09-06T04:10:59.142Z,4
2016-09-06T04:11:59.164Z,0
2016-09-06T04:12:59.185Z,0
2016-09-06T04:13:59.211Z,4
2016-09-06T04:14:59.229Z,4
2016-09-06T04:15:59.257Z,4
2016-09-06T04:16:59.275Z,4
2016-09-06T04:17:59.307Z,8
2016-09-06T04:18:59.320Z,4
2016-09-06T04:19:59.347Z,8
2016-09-06T04:20:59.367Z,8
2016-09-06T04:21:59.407Z,8
2016-09-06T04:22:59.420Z,8
2016-09-06T04:23:59.438Z,12
2016-09-06T04:24:59.464Z,12
2016-09-06T04:25:59.495Z,12
2016-09-06T04:26:59.612Z,20
2016-09-06T04:27:59.551Z,20
2016-09-06T04:28:59.551Z,24
2016-09-06T04:29:59.591Z,24
2016-09-06T04:30:59.621Z,28
2016-09-06T04:31:59.937Z,28
2016-09-06T04:32:59.641Z,28
2016-09-06T04:33:59.678Z,32
2016-09-06T04:34:59.694Z,32
2016-09-06T04:35:59.721Z,40
2016-09-06T04:36:59.738Z,40
2016-09-06T04:37:59.775Z,44
2016-09-06T04:38:59.798Z,44
2016-09-06T04:39:59.820Z,44
2016-09-06T04:40:59.832Z,52
2016-09-06T04:41:59.852Z,52
2016-09-06T04:42:59.877Z,56
2016-09-06T04:43:59.907Z,60
2016-09-06T04:44:59.920Z,64
2016-09-06T04:45:59.944Z,64
2016-09-06T04:46:59.965Z,64
2016-09-06T04:47:59.993Z,68
2016-09-06T04:49:00.014Z,72
2016-09-06T04:50:00.032Z,72
2016-09-06T04:51:00.061Z,76
2016-09-06T04:52:00.079Z,76
2016-09-06T04:53:00.112Z,80
2016-09-06T04:54:00.130Z,80
2016-09-06T04:55:00.154Z,84
2016-09-06T04:56:00.176Z,92
2016-09-06T04:57:00.317Z,96
2016-09-06T04:58:00.321Z,100
2016-09-06T04:59:00.329Z,104
2016-09-06T05:00:00.492Z,108
2016-09-06T05:01:00.501Z,108
2016-09-06T05:02:00.505Z,116
2016-09-06T05:03:00.517Z,120
2016-09-06T05:04:00.525Z,128
2016-09-06T05:05:00.534Z,132
2016-09-06T05:06:00.542Z,144
2016-09-06T05:07:00.542Z,152
2016-09-06T05:08:00.549Z,164
2016-09-06T05:09:00.558Z,160
2016-09-06T05:10:00.608Z,168
2016-09-06T05:11:00.608Z,172
2016-09-06T05:12:00.616Z,172
2016-09-06T05:13:00.664Z,172
2016-09-06T05:14:00.671Z,176
2016-09-06T05:15:00.679Z,168
2016-09-06T05:16:00.702Z,172
2016-09-06T05:17:00.711Z,168
2016-09-06T05:18:00.719Z,184
2016-09-06T05:19:00.729Z,200
2016-09-06T05:20:00.747Z,216
2016-09-06T05:21:00.749Z,232
2016-09-06T05:22:01.093Z,236
2016-09-06T05:23:00.787Z,212
2016-09-06T05:24:00.817Z,208
2016-09-06T05:25:00.841Z,236
2016-09-06T05:26:00.880Z,244
2016-09-06T05:27:00.881Z,216
2016-09-06T05:28:00.907Z,212
2016-09-06T05:29:00.942Z,208
2016-09-06T05:30:00.949Z,212
2016-09-06T05:31:00.975Z,204
2016-09-06T05:32:01.003Z,212
2016-09-06T05:33:01.021Z,236
2016-09-06T05:34:01.053Z,276
2016-09-06T05:35:01.074Z,296
2016-09-06T05:36:01.408Z,292
2016-09-06T05:37:01.115Z,272
2016-09-06T05:38:01.141Z,268
2016-09-06T05:39:01.161Z,284
2016-09-06T05:40:01.193Z,272
2016-09-06T05:41:01.204Z,276
2016-09-06T05:42:01.242Z,284
2016-09-06T05:43:01.250Z,308
2016-09-06T05:44:01.279Z,316
2016-09-06T05:45:01.291Z,328
2016-09-06T05:46:01.325Z,360
2016-09-06T05:47:01.346Z,372
2016-09-06T05:48:01.364Z,376
2016-09-06T05:49:01.385Z,356
2016-09-06T05:50:01.414Z,364
2016-09-06T05:51:01.448Z,388
2016-09-06T05:52:01.457Z,416
2016-09-06T05:53:01.481Z,404
2016-09-06T05:54:01.502Z,408
2016-09-06T05:55:01.535Z,416
2016-09-06T05:56:01.544Z,412
2016-09-06T05:57:01.571Z,392
2016-09-06T05:58:01.589Z,372
2016-09-06T05:59:01.619Z,368
2016-09-06T06:00:01.638Z,396
2016-09-06T06:01:01.666Z,448
2016-09-06T06:02:01.697Z,484
2016-09-06T06:03:01.713Z,528
2016-09-06T06:04:01.732Z,552
2016-09-06T06:05:01.766Z,584
2016-09-06T06:06:01.779Z,620
2016-09-06T06:07:01.801Z,572
2016-09-06T06:08:01.824Z,552
2016-09-06T06:09:01.852Z,612
2016-09-06T06:10:01.872Z,652
2016-09-06T06:11:01.893Z,664
2016-09-06T06:12:01.917Z,756
2016-09-06T06:13:01.941Z,808
2016-09-06T06:14:01.962Z,760
2016-09-06T06:15:01.986Z,704
2016-09-06T06:16:02.011Z,632
2016-09-06T06:17:02.031Z,572
2016-09-06T06:18:02.059Z,564
2016-09-06T06:19:02.074Z,584
2016-09-06T06:20:02.138Z,580
2016-09-06T06:21:02.120Z,596
2016-09-06T06:22:02.154Z,580
2016-09-06T06:23:02.589Z,592
2016-09-06T06:24:02.196Z,592
2016-09-06T06:25:02.213Z,572
2016-09-06T06:26:02.356Z,572
2016-09-06T06:27:02.362Z,580
2016-09-06T06:28:02.370Z,644
2016-09-06T06:29:02.845Z,696
2016-09-06T06:30:02.555Z,744
2016-09-06T06:31:02.548Z,756
2016-09-06T06:32:02.556Z,736
2016-09-06T06:33:02.566Z,728
2016-09-06T06:34:02.573Z,700
2016-09-06T06:35:02.583Z,680
2016-09-06T06:36:02.597Z,684
2016-09-06T06:37:02.592Z,692
2016-09-06T06:38:02.756Z,692
2016-09-06T06:39:02.650Z,664
2016-09-06T06:40:02.650Z,624
2016-09-06T06:41:02.654Z,588
2016-09-06T06:42:03.017Z,608
2016-09-06T06:43:02.712Z,624
2016-09-06T06:44:02.758Z,676
2016-09-06T06:45:02.745Z,728
2016-09-06T06:46:02.766Z,772
2016-09-06T06:47:02.765Z,784
2016-09-06T06:48:02.773Z,824
2016-09-06T06:49:02.781Z,840
2016-09-06T06:50:02.805Z,828
2016-09-06T06:51:02.818Z,804
2016-09-06T06:52:03.170Z,844
2016-09-06T06:53:02.866Z,908
2016-09-06T06:54:02.892Z,872
2016-09-06T06:55:02.919Z,852
2016-09-06T06:56:02.936Z,824
2016-09-06T06:57:02.960Z,832
2016-09-06T06:58:02.994Z,808
2016-09-06T06:59:03.010Z,772
2016-09-06T07:00:03.042Z,784
2016-09-06T07:01:03.057Z,804
2016-09-06T07:02:03.076Z,816
2016-09-06T07:03:03.097Z,796
2016-09-06T07:04:03.136Z,776
2016-09-06T07:05:03.146Z,740
2016-09-06T07:06:03.183Z,700
2016-09-06T07:07:03.196Z,672
2016-09-06T07:08:03.226Z,648
2016-09-06T07:09:03.247Z,612
2016-09-06T07:10:03.262Z,592
2016-09-06T07:11:03.294Z,592
2016-09-06T07:12:03.320Z,596
2016-09-06T07:13:03.408Z,596
2016-09-06T07:14:03.440Z,612
2016-09-06T07:15:03.383Z,628
2016-09-06T07:16:03.408Z,572
2016-09-06T07:17:03.428Z,544
2016-09-06T07:18:03.455Z,536
2016-09-06T07:19:03.484Z,532
2016-09-06T07:20:03.504Z,552
2016-09-06T07:21:03.835Z,624
2016-09-06T07:22:03.545Z,664
2016-09-06T07:23:03.574Z,700
2016-09-06T07:24:03.592Z,720
2016-09-06T07:25:03.611Z,680
2016-09-06T07:26:03.660Z,648
2016-09-06T07:27:03.657Z,600
2016-09-06T07:28:03.681Z,632
2016-09-06T07:29:03.710Z,640
2016-09-06T07:30:03.728Z,664
2016-09-06T07:31:03.758Z,640
2016-09-06T07:32:03.776Z,652
2016-09-06T07:33:03.803Z,696
2016-09-06T07:34:03.826Z,756
2016-09-06T07:35:04.165Z,804
2016-09-06T07:36:03.874Z,868
2016-09-06T07:37:03.895Z,952
2016-09-06T07:38:03.923Z,940
2016-09-06T07:39:03.948Z,936
2016-09-06T07:40:03.964Z,988
2016-09-06T07:41:03.989Z,1080
2016-09-06T07:42:04.019Z,1144
2016-09-06T07:43:04.034Z,1228
2016-09-06T07:44:04.090Z,1196
2016-09-06T07:45:04.398Z,1140
2016-09-06T07:46:04.110Z,1092
2016-09-06T07:47:04.138Z,1048
2016-09-06T07:48:04.156Z,1056
2016-09-06T07:49:04.182Z,1048
2016-09-06T07:50:04.200Z,1052
2016-09-06T07:51:04.222Z,1128
2016-09-06T07:52:04.250Z,1200
2016-09-06T07:53:04.265Z,1212
2016-09-06T07:54:04.408Z,1220
2016-09-06T07:55:04.407Z,1196
2016-09-06T07:56:04.583Z,1148
2016-09-06T07:57:04.575Z,1112
2016-09-06T07:58:04.589Z,1116
2016-09-06T07:59:04.592Z,1128
2016-09-06T08:00:04.600Z,1100
2016-09-06T08:01:04.602Z,1076
2016-09-06T08:02:04.623Z,1192
2016-09-06T08:03:04.624Z,1404
2016-09-06T08:04:04.627Z,1428
2016-09-06T08:05:04.758Z,1520
2016-09-06T08:06:05.083Z,1456
2016-09-06T08:07:04.783Z,1408
2016-09-06T08:08:04.721Z,1308
2016-09-06T08:09:04.727Z,1292
2016-09-06T08:10:04.784Z,1232
2016-09-06T08:11:04.771Z,1160
2016-09-06T08:12:04.803Z,1112
2016-09-06T08:13:04.790Z,1108
2016-09-06T08:14:04.787Z,1144
2016-09-06T08:15:04.799Z,1220
2016-09-06T08:16:04.824Z,1264
2016-09-06T08:17:04.842Z,1336
2016-09-06T08:18:04.910Z,1392
2016-09-06T08:19:04.899Z,1428
2016-09-06T08:20:04.916Z,1412
2016-09-06T08:21:04.937Z,1456
2016-09-06T08:22:04.965Z,1544
2016-09-06T08:23:04.985Z,1584
2016-09-06T08:24:05.027Z,1616
2016-09-06T08:25:05.350Z,1632
2016-09-06T08:26:05.121Z,1504
2016-09-06T08:27:05.084Z,1328
2016-09-06T08:28:05.104Z,1260
2016-09-06T08:29:05.130Z,1196
2016-09-06T08:30:05.171Z,1156
2016-09-06T08:31:05.196Z,1156
2016-09-06T08:32:05.220Z,1236
2016-09-06T08:33:05.230Z,1304
2016-09-06T08:34:05.257Z,1348
2016-09-06T08:35:05.272Z,1412
2016-09-06T08:36:05.297Z,1460
2016-09-06T08:37:05.631Z,1392
2016-09-06T08:38:05.351Z,1316
2016-09-06T08:39:05.365Z,1384
2016-09-06T08:40:05.402Z,1496
2016-09-06T08:41:05.462Z,1464
2016-09-06T08:42:05.439Z,1340
2016-09-06T08:43:05.467Z,1212
2016-09-06T08:44:05.494Z,1136
2016-09-06T08:45:05.512Z,1164
2016-09-06T08:46:05.853Z,1116
2016-09-06T08:47:05.562Z,1080
2016-09-06T08:48:05.583Z,1076
2016-09-06T08:49:05.609Z,1080
2016-09-06T08:50:05.653Z,1060
2016-09-06T08:51:05.655Z,1044
2016-09-06T08:52:05.694Z,1036
2016-09-06T08:53:05.708Z,1112
2016-09-06T08:54:05.743Z,1248
2016-09-06T08:55:05.756Z,1392
2016-09-06T08:56:05.776Z,1736
2016-09-06T08:57:05.800Z,1844
2016-09-06T08:58:05.831Z,1664
2016-09-06T08:59:05.874Z,1628
2016-09-06T09:00:05.887Z,1700
2016-09-06T09:01:05.903Z,1576
2016-09-06T09:02:05.922Z,1624
2016-09-06T09:03:05.957Z,1528
2016-09-06T09:04:06.400Z,1320
2016-09-06T09:05:05.994Z,1548
2016-09-06T09:06:06.019Z,1848
2016-09-06T09:07:06.045Z,1972
2016-09-06T09:08:06.068Z,1956
2016-09-06T09:09:06.095Z,1712
2016-09-06T09:10:06.117Z,1432
2016-09-06T09:11:06.149Z,1624
2016-09-06T09:12:06.466Z,1860
2016-09-06T09:13:06.194Z,1976
2016-09-06T09:14:06.215Z,2068
2016-09-06T09:15:06.241Z,2032
2016-09-06T09:16:06.262Z,1968
2016-09-06T09:17:06.295Z,2032
2016-09-06T09:18:06.310Z,2176
2016-09-06T09:19:06.339Z,2276
2016-09-06T09:20:06.363Z,2452
2016-09-06T09:21:06.391Z,2264
2016-09-06T09:22:06.414Z,2096
2016-09-06T09:23:06.439Z,1644
2016-09-06T09:24:06.462Z,1560
2016-09-06T09:25:06.490Z,1812
2016-09-06T09:26:06.507Z,2024
2016-09-06T09:27:06.537Z,2276
2016-09-06T09:28:06.565Z,1768
2016-09-06T09:29:06.584Z,1384
2016-09-06T09:30:06.613Z,1212
2016-09-06T09:31:06.637Z,1364
2016-09-06T09:32:06.973Z,1732
2016-09-06T09:33:06.703Z,1948
2016-09-06T09:34:06.709Z,1736
2016-09-06T09:35:06.737Z,1380
2016-09-06T09:36:06.783Z,1200
2016-09-06T09:37:06.781Z,1168
2016-09-06T09:38:06.807Z,1216
2016-09-06T09:39:06.836Z,1380
2016-09-06T09:40:06.860Z,1828
2016-09-06T09:41:06.880Z,2284
2016-09-06T09:42:06.915Z,2440
2016-09-06T09:43:06.932Z,2428
2016-09-06T09:44:06.965Z,2376
2016-09-06T09:45:06.983Z,2208
2016-09-06T09:46:07.009Z,2004
2016-09-06T09:47:07.029Z,1864
2016-09-06T09:48:07.131Z,1608
2016-09-06T09:49:07.079Z,1340
2016-09-06T09:50:07.116Z,1300
2016-09-06T09:51:07.130Z,1408
2016-09-06T09:52:07.173Z,1688
2016-09-06T09:53:07.182Z,1848
2016-09-06T09:54:07.207Z,1888
2016-09-06T09:55:07.236Z,1792
2016-09-06T09:56:07.271Z,2088
2016-09-06T09:57:07.280Z,2544
2016-09-06T09:58:07.359Z,2644
2016-09-06T09:59:07.339Z,2628
2016-09-06T10:00:07.354Z,2684
2016-09-06T10:01:07.387Z,2632
2016-09-06T10:02:07.417Z,2784
2016-09-06T10:03:07.430Z,2528
2016-09-06T10:04:07.461Z,2424
2016-09-06T10:05:07.475Z,2596
2016-09-06T10:06:07.511Z,2688
2016-09-06T10:07:07.531Z,2704
2016-09-06T10:08:07.553Z,2636
2016-09-06T10:09:07.579Z,2564
2016-09-06T10:10:07.608Z,2488
2016-09-06T10:11:07.630Z,2732
2016-09-06T10:12:07.660Z,2704
2016-09-06T10:13:07.681Z,2388
2016-09-06T10:14:07.709Z,1940
2016-09-06T10:15:07.751Z,2304
2016-09-06T10:16:07.764Z,1936
2016-09-06T10:17:07.897Z,1232
2016-09-06T10:18:07.905Z,1212
2016-09-06T10:19:07.936Z,1288
2016-09-06T10:20:07.946Z,860
2016-09-06T10:21:07.954Z,900
2016-09-06T10:22:07.956Z,1032
2016-09-06T10:23:07.962Z,1068
2016-09-06T10:24:08.033Z,1088
2016-09-06T10:25:08.031Z,1196
2016-09-06T10:26:08.043Z,1204
2016-09-06T10:27:08.050Z,1164
2016-09-06T10:28:08.065Z,1196
2016-09-06T10:29:08.184Z,1336
2016-09-06T10:30:08.204Z,1084
2016-09-06T10:31:08.214Z,1296
2016-09-06T10:32:08.222Z,1336
2016-09-06T10:33:08.290Z,1980
2016-09-06T10:34:08.241Z,2160
2016-09-06T10:35:08.243Z,2136
2016-09-06T10:36:08.271Z,1828
2016-09-06T10:37:08.295Z,2260
2016-09-06T10:38:08.357Z,2352
2016-09-06T10:39:08.359Z,2200
2016-09-06T10:40:08.689Z,1892
2016-09-06T10:41:08.403Z,1580
2016-09-06T10:42:08.418Z,1308
2016-09-06T10:43:08.452Z,1540
2016-09-06T10:44:08.472Z,1464
2016-09-06T10:45:08.503Z,1292
2016-09-06T10:46:08.525Z,1016
2016-09-06T10:47:08.556Z,1280
2016-09-06T10:48:08.575Z,1940
2016-09-06T10:49:08.606Z,1844
2016-09-06T10:50:08.626Z,1572
2016-09-06T10:51:08.657Z,2052
2016-09-06T10:52:08.681Z,2244
2016-09-06T10:53:08.709Z,2932
2016-09-06T10:54:08.735Z,3548
2016-09-06T10:55:08.764Z,3052
2016-09-06T10:56:08.790Z,2804
2016-09-06T10:57:08.815Z,2712
2016-09-06T10:58:08.837Z,2788
2016-09-06T10:59:09.179Z,2176
2016-09-06T11:00:08.895Z,1808
2016-09-06T11:01:08.923Z,1544
2016-09-06T11:02:08.955Z,1324
2016-09-06T11:03:08.979Z,1236
2016-09-06T11:04:09.002Z,1208
2016-09-06T11:05:09.023Z,1616
2016-09-06T11:06:09.050Z,2148
2016-09-06T11:07:09.078Z,2184
2016-09-06T11:08:09.107Z,1816
2016-09-06T11:09:09.150Z,1684
2016-09-06T11:10:09.160Z,1604
2016-09-06T11:11:09.182Z,1816
2016-09-06T11:12:09.216Z,1156
2016-09-06T11:13:09.235Z,1160
2016-09-06T11:14:09.285Z,1332
2016-09-06T11:15:09.288Z,1564
2016-09-06T11:16:09.319Z,1648
2016-09-06T11:17:09.341Z,2312
2016-09-06T11:18:09.374Z,3344
2016-09-06T11:19:09.404Z,3500
2016-09-06T11:20:09.424Z,3340
2016-09-06T11:21:09.449Z,3128
2016-09-06T11:22:09.478Z,3432
2016-09-06T11:23:09.506Z,3188
2016-09-06T11:24:09.535Z,2820
2016-09-06T11:25:09.557Z,2432
2016-09-06T11:26:09.583Z,2680
2016-09-06T11:27:09.612Z,2856
2016-09-06T11:28:10.188Z,2828
2016-09-06T11:29:09.668Z,2652
2016-09-06T11:30:09.697Z,2100
2016-09-06T11:31:09.721Z,2152
2016-09-06T11:32:09.860Z,1904
2016-09-06T11:33:09.867Z,1936
2016-09-06T11:34:09.897Z,2676
2016-09-06T11:35:10.068Z,2608
2016-09-06T11:36:10.076Z,2628
2016-09-06T11:37:10.095Z,2392
2016-09-06T11:38:10.102Z,2100
2016-09-06T11:39:10.110Z,2132
2016-09-06T11:40:10.109Z,2384
2016-09-06T11:41:10.159Z,2156
2016-09-06T11:42:10.171Z,1884
2016-09-06T11:43:10.165Z,1612
2016-09-06T11:44:10.176Z,1484
2016-09-06T11:45:10.209Z,1472
2016-09-06T11:46:10.233Z,1420
2016-09-06T11:47:10.238Z,1428
2016-09-06T11:48:10.580Z,1420
2016-09-06T11:49:10.269Z,1388
2016-09-06T11:50:10.282Z,1376
2016-09-06T11:51:10.288Z,1516
2016-09-06T11:52:10.299Z,1724
2016-09-06T11:53:10.321Z,1812
2016-09-06T11:54:10.362Z,2012
2016-09-06T11:55:10.377Z,2532
2016-09-06T11:56:10.416Z,2972
2016-09-06T11:57:10.440Z,2840
2016-09-06T11:58:10.465Z,3112
2016-09-06T11:59:10.487Z,3432
2016-09-06T12:00:10.520Z,3120
2016-09-06T12:01:10.548Z,3200
2016-09-06T12:02:10.580Z,3260
2016-09-06T12:03:10.613Z,2996
2016-09-06T12:04:10.633Z,2892
2016-09-06T12:05:10.666Z,2944
2016-09-06T12:06:10.688Z,2836
2016-09-06T12:07:10.718Z,2744
2016-09-06T12:08:10.741Z,2624
2016-09-06T12:09:10.769Z,2528
2016-09-06T12:10:10.797Z,2384
2016-09-06T12:11:10.827Z,2544
2016-09-06T12:12:10.857Z,2640
2016-09-06T12:13:10.884Z,2684
2016-09-06T12:14:10.913Z,2680
2016-09-06T12:15:10.939Z,2748
2016-09-06T12:16:10.968Z,2996
2016-09-06T12:17:10.997Z,3164
2016-09-06T12:18:11.025Z,3268
2016-09-06T12:19:11.061Z,3212
2016-09-06T12:20:11.083Z,2420
2016-09-06T12:21:11.107Z,2084
2016-09-06T12:22:11.140Z,2144
2016-09-06T12:23:11.164Z,2296
2016-09-06T12:24:11.198Z,2372
2016-09-06T12:25:11.218Z,2360
2016-09-06T12:26:11.258Z,1884
2016-09-06T12:27:11.278Z,1548
2016-09-06T12:28:11.314Z,1672
2016-09-06T12:29:11.336Z,1888
2016-09-06T12:30:11.682Z,2016
2016-09-06T12:31:11.393Z,1616
2016-09-06T12:32:11.425Z,1396
2016-09-06T12:33:11.458Z,1600
2016-09-06T12:34:11.477Z,1588
2016-09-06T12:35:11.507Z,1828
2016-09-06T12:36:11.534Z,1972
2016-09-06T12:37:11.564Z,1936
2016-09-06T12:38:11.594Z,2144
2016-09-06T12:39:11.623Z,2660
2016-09-06T12:40:11.647Z,2796
2016-09-06T12:41:11.678Z,2604
2016-09-06T12:42:11.702Z,2424
2016-09-06T12:43:11.734Z,2224
2016-09-06T12:44:11.758Z,2156
2016-09-06T12:45:11.795Z,1768
2016-09-06T12:46:11.931Z,1444
2016-09-06T12:47:11.941Z,1424
2016-09-06T12:48:12.102Z,1320
2016-09-06T12:49:12.116Z,1356
2016-09-06T12:50:12.124Z,1468
2016-09-06T12:51:12.138Z,1476
2016-09-06T12:52:12.135Z,1400
2016-09-06T12:53:12.142Z,1336
2016-09-06T12:54:12.152Z,1500
2016-09-06T12:55:12.308Z,1584
2016-09-06T12:56:12.305Z,1592
2016-09-06T12:57:12.462Z,1488
2016-09-06T12:58:12.259Z,1300
2016-09-06T12:59:12.262Z,1128
2016-09-06T13:00:12.299Z,1056
2016-09-06T13:01:12.297Z,1028
2016-09-06T13:02:12.302Z,1040
2016-09-06T13:03:12.316Z,1168
2016-09-06T13:04:12.342Z,1168
2016-09-06T13:05:12.370Z,1252
2016-09-06T13:06:12.398Z,1212
2016-09-06T13:07:12.432Z,1128
2016-09-06T13:08:12.457Z,1076
2016-09-06T13:09:12.485Z,1052
2016-09-06T13:10:12.508Z,1056
2016-09-06T13:11:12.548Z,1156
2016-09-06T13:12:12.569Z,1140
2016-09-06T13:13:12.602Z,1324
2016-09-06T13:14:12.625Z,1428
2016-09-06T13:15:12.656Z,1500
2016-09-06T13:16:12.687Z,1480
2016-09-06T13:17:12.710Z,1656
2016-09-06T13:18:12.744Z,1924
2016-09-06T13:19:12.768Z,1912
2016-09-06T13:20:12.808Z,2020
2016-09-06T13:21:12.833Z,2268
2016-09-06T13:22:12.860Z,2440
2016-09-06T13:23:12.893Z,2612
2016-09-06T13:24:12.919Z,2620
2016-09-06T13:25:12.944Z,2512
2016-09-06T13:26:12.976Z,2176
2016-09-06T13:27:12.999Z,1820
2016-09-06T13:28:13.030Z,1584
2016-09-06T13:29:13.064Z,1552
2016-09-06T13:30:13.089Z,1588
2016-09-06T13:31:13.431Z,1572
2016-09-06T13:32:13.150Z,1588
2016-09-06T13:33:13.173Z,1392
2016-09-06T13:34:13.521Z,1260
2016-09-06T13:35:13.233Z,1196
2016-09-06T13:36:13.262Z,1188
2016-09-06T13:37:13.293Z,1132
2016-09-06T13:38:13.330Z,1168
2016-09-06T13:39:13.354Z,1136
2016-09-06T13:40:13.384Z,1028
2016-09-06T13:41:13.417Z,976
2016-09-06T13:42:13.439Z,960
2016-09-06T13:43:13.465Z,1044
2016-09-06T13:44:13.507Z,1320
2016-09-06T13:45:13.529Z,1556
2016-09-06T13:46:13.561Z,1876
2016-09-06T13:47:13.587Z,2060
2016-09-06T13:48:13.622Z,2812
2016-09-06T13:49:13.644Z,2932
2016-09-06T13:50:13.675Z,2944
2016-09-06T13:51:13.705Z,2900
2016-09-06T13:52:13.740Z,2980
2016-09-06T13:53:13.766Z,3008